aviador You're here:

FALE Decoded Metar

KING SHAKA INT ARPT in SOUTH AFRICA
Report Time2017-12-11 04:10:00
UTC Time2017-12-11 05:28:13
Flight Rules Old
WindVRB at 02 kt
Visibility9999 m
Phenomena:N/A
Clouds:Few 027 Hf
Few CB 040 Hf
Broken 041 Hf
Expected CloudBase > 1,200 ft AGL from Temp-Dew spread
Ceiling4,100 ft
Temp17°C (ISA +3)
Dew Point14°C (83% RH)
QNH1017 hPa
Density Alt679 ft
Elevation295 ft
Report Wrong Elevation
Raw Report
SPECI FALE 110410Z VRB02KT 9999 FEW027 FEW040CB BKN041 17/14 Q1017
NOSIG=

Extra information for FALE:More info

Metar Taf Metar & Taf Last 4 Metars F.Rules Stats Wind Profile Meteogram Temp Stats Airport Information Weather charts Add Link Nearby VenuesMetar ALERT Operation Metar Decoded Social comments